sensor_id;sensor_type;location;lat;lon;timestamp;pressure;altitude;pressure_sealevel;temperature;humidity
11440;BME280;5776;51.814;4.510;2023-03-18T00:00:00;100825.25;;;10.70;100.00
11440;BME280;5776;51.814;4.510;2023-03-18T00:02:26;100825.78;;;10.72;100.00
11440;BME280;5776;51.814;4.510;2023-03-18T00:04:52;100824.97;;;10.71;100.00
11440;BME280;5776;51.814;4.510;2023-03-18T00:07:18;100825.78;;;10.72;100.00
11440;BME280;5776;51.814;4.510;2023-03-18T00:09:44;100820.94;;;10.69;100.00
11440;BME280;5776;51.814;4.510;2023-03-18T00:12:10;100825.84;;;10.67;100.00
11440;BME280;5776;51.814;4.510;2023-03-18T00:14:37;100823.13;;;10.67;100.00
11440;BME280;5776;51.814;4.510;2023-03-18T00:17:04;100822.00;;;10.68;100.00
11440;BME280;5776;51.814;4.510;2023-03-18T00:19:30;100817.97;;;10.65;100.00
11440;BME280;5776;51.814;4.510;2023-03-18T00:21:58;100819.88;;;10.65;100.00
11440;BME280;5776;51.814;4.510;2023-03-18T00:24:25;100818.28;;;10.64;100.00
11440;BME280;5776;51.814;4.510;2023-03-18T00:26:53;100812.00;;;10.63;100.00
11440;BME280;5776;51.814;4.510;2023-03-18T00:29:20;100813.91;;;10.63;100.00
11440;BME280;5776;51.814;4.510;2023-03-18T00:31:47;100815.81;;;10.62;100.00
11440;BME280;5776;51.814;4.510;2023-03-18T00:34:14;100813.13;;;10.62;100.00
11440;BME280;5776;51.814;4.510;2023-03-18T00:36:40;100817.75;;;10.62;100.00
11440;BME280;5776;51.814;4.510;2023-03-18T00:39:06;100812.59;;;10.60;100.00
11440;BME280;5776;51.814;4.510;2023-03-18T00:41:34;100822.38;;;10.61;100.00
11440;BME280;5776;51.814;4.510;2023-03-18T00:44:01;100814.50;;;10.59;100.00
11440;BME280;5776;51.814;4.510;2023-03-18T00:46:30;100813.38;;;10.60;100.00
11440;BME280;5776;51.814;4.510;2023-03-18T00:48:59;100816.94;;;10.61;100.00
11440;BME280;5776;51.814;4.510;2023-03-18T00:51:27;100813.97;;;10.57;100.00
11440;BME280;5776;51.814;4.510;2023-03-18T00:53:57;100818.31;;;10.58;100.00
11440;BME280;5776;51.814;4.510;2023-03-18T00:56:27;100819.41;;;10.57;100.00
11440;BME280;5776;51.814;4.510;2023-03-18T00:58:53;100825.38;;;10.59;100.00
11440;BME280;5776;51.814;4.510;2023-03-18T01:01:20;100824.03;;;10.57;100.00
11440;BME280;5776;51.814;4.510;2023-03-18T01:03:47;100817.78;;;10.56;100.00
11440;BME280;5776;51.814;4.510;2023-03-18T01:06:16;100823.22;;;10.56;100.00
11440;BME280;5776;51.814;4.510;2023-03-18T01:08:42;100822.44;;;10.56;100.00
11440;BME280;5776;51.814;4.510;2023-03-18T01:11:09;100828.94;;;10.55;100.00
11440;BME280;5776;51.814;4.510;2023-03-18T01:13:36;100825.41;;;10.54;100.00
11440;BME280;5776;51.814;4.510;2023-03-18T01:16:03;100829.75;;;10.55;100.00
11440;BME280;5776;51.814;4.510;2023-03-18T01:18:30;100829.75;;;10.55;100.00
11440;BME280;5776;51.814;4.510;2023-03-18T01:20:57;100830.84;;;10.54;100.00
11440;BME280;5776;51.814;4.510;2023-03-18T01:23:23;100829.25;;;10.53;100.00
11440;BME280;5776;51.814;4.510;2023-03-18T01:25:50;100825.69;;;10.53;100.00
11440;BME280;5776;51.814;4.510;2023-03-18T01:28:16;100821.09;;;10.53;100.00
11440;BME280;5776;51.814;4.510;2023-03-18T01:30:42;100819.47;;;10.52;100.00
11440;BME280;5776;51.814;4.510;2023-03-18T01:33:09;100826.81;;;10.52;100.00
11440;BME280;5776;51.814;4.510;2023-03-18T01:35:35;100824.91;;;10.52;100.00
11440;BME280;5776;51.814;4.510;2023-03-18T01:38:03;100816.75;;;10.52;100.00
11440;BME280;5776;51.814;4.510;2023-03-18T01:40:35;100810.50;;;10.52;100.00
11440;BME280;5776;51.814;4.510;2023-03-18T01:43:13;100828.72;;;10.51;100.00
11440;BME280;5776;51.814;4.510;2023-03-18T01:45:40;100829.78;;;10.50;100.00
11440;BME280;5776;51.814;4.510;2023-03-18T01:48:13;100823.56;;;10.50;100.00
11440;BME280;5776;51.814;4.510;2023-03-18T01:50:40;100833.34;;;10.51;100.00
11440;BME280;5776;51.814;4.510;2023-03-18T01:53:09;100828.19;;;10.49;100.00
11440;BME280;5776;51.814;4.510;2023-03-18T01:55:37;100828.19;;;10.49;100.00
11440;BME280;5776;51.814;4.510;2023-03-18T01:58:19;100833.63;;;10.49;100.00
11440;BME280;5776;51.814;4.510;2023-03-18T02:00:55;100842.88;;;10.48;100.00
11440;BME280;5776;51.814;4.510;2023-03-18T02:03:22;100837.44;;;10.48;100.00
11440;BME280;5776;51.814;4.510;2023-03-18T02:05:48;100838.00;;;10.45;100.00
11440;BME280;5776;51.814;4.510;2023-03-18T02:08:16;100843.44;;;10.45;100.00
11440;BME280;5776;51.814;4.510;2023-03-18T02:10:43;100845.34;;;10.45;100.00
11440;BME280;5776;51.814;4.510;2023-03-18T02:13:10;100839.09;;;10.44;100.00
11440;BME280;5776;51.814;4.510;2023-03-18T02:16:00;100840.19;;;10.43;100.00
11440;BME280;5776;51.814;4.510;2023-03-18T02:18:34;100840.72;;;10.45;100.00
11440;BME280;5776;51.814;4.510;2023-03-18T02:23:58;100834.47;;;10.45;100.00
11440;BME280;5776;51.814;4.510;2023-03-18T02:26:34;100843.44;;;10.45;100.00
11440;BME280;5776;51.814;4.510;2023-03-18T02:29:02;100839.09;;;10.44;100.00
11440;BME280;5776;51.814;4.510;2023-03-18T02:31:31;100838.00;;;10.45;100.00
11440;BME280;5776;51.814;4.510;2023-03-18T02:33:59;100834.75;;;10.43;100.00
11440;BME280;5776;51.814;4.510;2023-03-18T02:36:27;100844.22;;;10.46;100.00
11440;BME280;5776;51.814;4.510;2023-03-18T02:38:56;100823.63;;;10.45;100.00
11440;BME280;5776;51.814;4.510;2023-03-18T02:41:25;100827.13;;;10.45;100.00
11440;BME280;5776;51.814;4.510;2023-03-18T02:43:52;100834.47;;;10.45;100.00
11440;BME280;5776;51.814;4.510;2023-03-18T02:49:08;100837.47;;;10.43;100.00
11440;BME280;5776;51.814;4.510;2023-03-18T02:51:36;100843.72;;;10.44;100.00
11440;BME280;5776;51.814;4.510;2023-03-18T02:54:09;100836.66;;;10.43;100.00
11440;BME280;5776;51.814;4.510;2023-03-18T02:56:36;100845.59;;;10.43;100.00
11440;BME280;5776;51.814;4.510;2023-03-18T02:59:03;100841.81;;;10.44;100.00
11440;BME280;5776;51.814;4.510;2023-03-18T03:01:30;100858.09;;;10.44;100.00
11440;BME280;5776;51.814;4.510;2023-03-18T03:03:57;100845.34;;;10.45;100.00
11440;BME280;5776;51.814;4.510;2023-03-18T03:06:23;100847.25;;;10.44;100.00
11440;BME280;5776;51.814;4.510;2023-03-18T03:08:50;100851.56;;;10.45;100.00
11440;BME280;5776;51.814;4.510;2023-03-18T03:11:17;100854.00;;;10.47;100.00
11440;BME280;5776;51.814;4.510;2023-03-18T03:13:44;100859.16;;;10.48;100.00
11440;BME280;5776;51.814;4.510;2023-03-18T03:16:11;100859.16;;;10.48;100.00
11440;BME280;5776;51.814;4.510;2023-03-18T03:18:37;100860.53;;;10.46;100.00
11440;BME280;5776;51.814;4.510;2023-03-18T03:21:03;100865.41;;;10.49;100.00
11440;BME280;5776;51.814;4.510;2023-03-18T03:23:30;100861.88;;;10.48;100.00
11440;BME280;5776;51.814;4.510;2023-03-18T03:25:56;100864.59;;;10.48;100.00
11440;BME280;5776;51.814;4.510;2023-03-18T03:28:22;100869.19;;;10.48;100.00
11440;BME280;5776;51.814;4.510;2023-03-18T03:30:48;100865.16;;;10.45;100.00
11440;BME280;5776;51.814;4.510;2023-03-18T03:33:14;100869.50;;;10.46;100.00
11440;BME280;5776;51.814;4.510;2023-03-18T03:35:40;100871.91;;;10.48;100.00
11440;BME280;5776;51.814;4.510;2023-03-18T03:38:06;100875.47;;;10.48;100.00
11440;BME280;5776;51.814;4.510;2023-03-18T03:40:33;100876.25;;;10.49;100.00
11440;BME280;5776;51.814;4.510;2023-03-18T03:42:59;100883.59;;;10.48;100.00
11440;BME280;5776;51.814;4.510;2023-03-18T03:45:25;100879.25;;;10.47;100.00
11440;BME280;5776;51.814;4.510;2023-03-18T03:47:51;100881.69;;;10.49;100.00
11440;BME280;5776;51.814;4.510;2023-03-18T03:50:18;100873.28;;;10.45;100.00
11440;BME280;5776;51.814;4.510;2023-03-18T03:52:45;100876.00;;;10.45;100.00
11440;BME280;5776;51.814;4.510;2023-03-18T03:55:14;100876.81;;;10.46;100.00
11440;BME280;5776;51.814;4.510;2023-03-18T03:57:40;100873.28;;;10.45;100.00
11440;BME280;5776;51.814;4.510;2023-03-18T04:00:09;100875.22;;;10.45;100.00
11440;BME280;5776;51.814;4.510;2023-03-18T04:02:42;100880.63;;;10.45;100.00
11440;BME280;5776;51.814;4.510;2023-03-18T04:05:11;100883.34;;;10.45;100.00
11440;BME280;5776;51.814;4.510;2023-03-18T04:07:38;100880.09;;;10.43;100.00
11440;BME280;5776;51.814;4.510;2023-03-18T04:10:04;100879.03;;;10.44;100.00
11440;BME280;5776;51.814;4.510;2023-03-18T04:12:30;100887.16;;;10.44;100.00
11440;BME280;5776;51.814;4.510;2023-03-18T04:14:56;100892.06;;;10.42;100.00
11440;BME280;5776;51.814;4.510;2023-03-18T04:17:21;100893.69;;;10.43;100.00
11440;BME280;5776;51.814;4.510;2023-03-18T04:19:47;100896.41;;;10.43;100.00
11440;BME280;5776;51.814;4.510;2023-03-18T04:22:14;100897.78;;;10.40;100.00
11440;BME280;5776;51.814;4.510;2023-03-18T04:24:41;100903.75;;;10.42;100.00
11440;BME280;5776;51.814;4.510;2023-03-18T04:27:07;100906.72;;;10.41;100.00
11440;BME280;5776;51.814;4.510;2023-03-18T04:29:33;100905.66;;;10.42;100.00
11440;BME280;5776;51.814;4.510;2023-03-18T04:31:59;100903.75;;;10.42;100.00
11440;BME280;5776;51.814;4.510;2023-03-18T04:34:24;100900.22;;;10.42;100.00
11440;BME280;5776;51.814;4.510;2023-03-18T04:36:50;100901.03;;;10.42;100.00
11440;BME280;5776;51.814;4.510;2023-03-18T04:39:16;100905.34;;;10.43;100.00
11440;BME280;5776;51.814;4.510;2023-03-18T04:41:42;100911.59;;;10.44;100.00
11440;BME280;5776;51.814;4.510;2023-03-18T04:44:08;100914.59;;;10.42;100.00
11440;BME280;5776;51.814;4.510;2023-03-18T04:46:34;100927.06;;;10.43;100.00
11440;BME280;5776;51.814;4.510;2023-03-18T04:49:00;100928.69;;;10.44;100.00
11440;BME280;5776;51.814;4.510;2023-03-18T04:51:26;100937.44;;;10.41;100.00
11440;BME280;5776;51.814;4.510;2023-03-18T04:53:52;100921.13;;;10.41;100.00
11440;BME280;5776;51.814;4.510;2023-03-18T04:56:18;100923.84;;;10.41;100.00
11440;BME280;5776;51.814;4.510;2023-03-18T04:58:45;100921.13;;;10.41;100.00
11440;BME280;5776;51.814;4.510;2023-03-18T05:01:11;100912.16;;;10.41;100.00
11440;BME280;5776;51.814;4.510;2023-03-18T05:03:38;100911.34;;;10.40;100.00
11440;BME280;5776;51.814;4.510;2023-03-18T05:06:06;100917.59;;;10.41;100.00
11440;BME280;5776;51.814;4.510;2023-03-18T05:08:32;100916.78;;;10.40;100.00
11440;BME280;5776;51.814;4.510;2023-03-18T05:10:59;100918.41;;;10.41;100.00
11440;BME280;5776;51.814;4.510;2023-03-18T05:13:24;100929.28;;;10.41;100.00
11440;BME280;5776;51.814;4.510;2023-03-18T05:15:50;100924.41;;;10.38;100.00
11440;BME280;5776;51.814;4.510;2023-03-18T05:18:17;100929.03;;;10.37;100.00
11440;BME280;5776;51.814;4.510;2023-03-18T05:20:43;100933.66;;;10.37;100.00
11440;BME280;5776;51.814;4.510;2023-03-18T05:23:09;100929.03;;;10.37;100.00
11440;BME280;5776;51.814;4.510;2023-03-18T05:25:35;100936.63;;;10.35;100.00
11440;BME280;5776;51.814;4.510;2023-03-18T05:28:01;100936.63;;;10.35;100.00
11440;BME280;5776;51.814;4.510;2023-03-18T05:30:27;100934.22;;;10.34;100.00
11440;BME280;5776;51.814;4.510;2023-03-18T05:32:53;100935.03;;;10.34;100.00
11440;BME280;5776;51.814;4.510;2023-03-18T05:35:19;100924.44;;;10.33;100.00
11440;BME280;5776;51.814;4.510;2023-03-18T05:37:45;100908.16;;;10.33;100.00
11440;BME280;5776;51.814;4.510;2023-03-18T05:40:11;100903.28;;;10.30;100.00
11440;BME280;5776;51.814;4.510;2023-03-18T05:42:38;100916.06;;;10.29;100.00
11440;BME280;5776;51.814;4.510;2023-03-18T05:45:06;100919.88;;;10.28;100.00
11440;BME280;5776;51.814;4.510;2023-03-18T05:47:32;100928.28;;;10.27;100.00
11440;BME280;5776;51.814;4.510;2023-03-18T05:49:58;100923.41;;;10.24;100.00
11440;BME280;5776;51.814;4.510;2023-03-18T05:52:24;100924.22;;;10.24;100.00
11440;BME280;5776;51.814;4.510;2023-03-18T05:54:50;100922.88;;;10.22;100.00
11440;BME280;5776;51.814;4.510;2023-03-18T05:57:16;100937.53;;;10.21;100.00
11440;BME280;5776;51.814;4.510;2023-03-18T05:59:42;100938.09;;;10.17;100.00
11440;BME280;5776;51.814;4.510;2023-03-18T06:02:09;100944.63;;;10.16;100.00
11440;BME280;5776;51.814;4.510;2023-03-18T06:04:34;100953.34;;;10.13;100.00
11440;BME280;5776;51.814;4.510;2023-03-18T06:07:00;100961.50;;;10.13;100.00
11440;BME280;5776;51.814;4.510;2023-03-18T06:09:28;100966.09;;;10.13;100.00
11440;BME280;5776;51.814;4.510;2023-03-18T06:11:54;100966.09;;;10.13;100.00
11440;BME280;5776;51.814;4.510;2023-03-18T06:14:20;100960.97;;;10.11;100.00
11440;BME280;5776;51.814;4.510;2023-03-18T06:16:46;100962.88;;;10.11;100.00
11440;BME280;5776;51.814;4.510;2023-03-18T06:19:12;100966.38;;;10.11;100.00
11440;BME280;5776;51.814;4.510;2023-03-18T06:21:39;100982.13;;;10.09;100.00
11440;BME280;5776;51.814;4.510;2023-03-18T06:24:05;100976.69;;;10.09;100.00
11440;BME280;5776;51.814;4.510;2023-03-18T06:26:31;100977.81;;;10.08;100.00
11440;BME280;5776;51.814;4.510;2023-03-18T06:28:57;100973.44;;;10.07;100.00
11440;BME280;5776;51.814;4.510;2023-03-18T06:31:23;100966.13;;;10.08;100.00
11440;BME280;5776;51.814;4.510;2023-03-18T06:33:49;100976.69;;;10.09;100.00
11440;BME280;5776;51.814;4.510;2023-03-18T06:36:15;100980.22;;;10.10;100.00
11440;BME280;5776;51.814;4.510;2023-03-18T06:38:41;100990.25;;;10.14;100.00
11440;BME280;5776;51.814;4.510;2023-03-18T06:41:08;100989.09;;;10.21;100.00
11440;BME280;5776;51.814;4.510;2023-03-18T06:43:34;100995.59;;;10.25;100.00
11440;BME280;5776;51.814;4.510;2023-03-18T06:46:00;100995.06;;;10.23;100.00
11440;BME280;5776;51.814;4.510;2023-03-18T06:48:26;100991.84;;;10.15;100.00
11440;BME280;5776;51.814;4.510;2023-03-18T06:50:53;100998.34;;;10.20;100.00
11440;BME280;5776;51.814;4.510;2023-03-18T06:53:19;100996.16;;;10.22;100.00
11440;BME280;5776;51.814;4.510;2023-03-18T06:55:45;100998.59;;;10.23;100.00
11440;BME280;5776;51.814;4.510;2023-03-18T06:58:11;100995.59;;;10.25;100.00
11440;BME280;5776;51.814;4.510;2023-03-18T07:00:37;101000.75;;;10.26;100.00
11440;BME280;5776;51.814;4.510;2023-03-18T07:03:06;101000.50;;;10.28;100.00
11440;BME280;5776;51.814;4.510;2023-03-18T07:05:32;100999.13;;;10.30;100.00
11440;BME280;5776;51.814;4.510;2023-03-18T07:07:58;100989.09;;;10.31;100.00
11440;BME280;5776;51.814;4.510;2023-03-18T07:10:26;100997.75;;;10.33;100.00
11440;BME280;5776;51.814;4.510;2023-03-18T07:12:52;100995.56;;;10.35;100.00
11440;BME280;5776;51.814;4.510;2023-03-18T07:15:20;100994.47;;;10.36;100.00
11440;BME280;5776;51.814;4.510;2023-03-18T07:17:48;100999.59;;;10.37;100.00
11440;BME280;5776;51.814;4.510;2023-03-18T07:20:15;101005.31;;;10.41;100.00
11440;BME280;5776;51.814;4.510;2023-03-18T07:22:43;100999.53;;;10.48;100.00
11440;BME280;5776;51.814;4.510;2023-03-18T07:25:10;101007.13;;;10.51;100.00
11440;BME280;5776;51.814;4.510;2023-03-18T07:27:36;101003.09;;;10.48;100.00
11440;BME280;5776;51.814;4.510;2023-03-18T07:30:02;101012.03;;;10.49;100.00
11440;BME280;5776;51.814;4.510;2023-03-18T07:32:28;101011.72;;;10.50;100.00
11440;BME280;5776;51.814;4.510;2023-03-18T07:34:55;101019.38;;;10.48;100.00
11440;BME280;5776;51.814;4.510;2023-03-18T07:37:22;101022.59;;;10.50;100.00
11440;BME280;5776;51.814;4.510;2023-03-18T07:39:48;101022.59;;;10.50;100.00
11440;BME280;5776;51.814;4.510;2023-03-18T07:42:14;101016.91;;;10.52;100.00
11440;BME280;5776;51.814;4.510;2023-03-18T07:44:40;101021.22;;;10.53;100.00
11440;BME280;5776;51.814;4.510;2023-03-18T07:47:06;101017.13;;;10.55;100.00
11440;BME280;5776;51.814;4.510;2023-03-18T07:49:32;101024.72;;;10.58;100.00
11440;BME280;5776;51.814;4.510;2023-03-18T07:51:58;101015.50;;;10.54;100.00
11440;BME280;5776;51.814;4.510;2023-03-18T07:54:24;101011.69;;;10.55;100.00
11440;BME280;5776;51.814;4.510;2023-03-18T07:56:50;101016.31;;;10.55;100.00
11440;BME280;5776;51.814;4.510;2023-03-18T07:59:17;101018.75;;;10.56;100.00
11440;BME280;5776;51.814;4.510;2023-03-18T08:01:43;101020.69;;;10.56;100.00
11440;BME280;5776;51.814;4.510;2023-03-18T08:04:09;101012.53;;;10.56;100.00
11440;BME280;5776;51.814;4.510;2023-03-18T08:06:35;101009.81;;;10.56;100.00
11440;BME280;5776;51.814;4.510;2023-03-18T08:09:02;101000.31;;;10.53;100.00
11440;BME280;5776;51.814;4.510;2023-03-18T08:11:29;101007.63;;;10.53;100.00
11440;BME280;5776;51.814;4.510;2023-03-18T08:13:55;101016.06;;;10.56;100.00
11440;BME280;5776;51.814;4.510;2023-03-18T08:16:21;101013.81;;;10.64;100.00
11440;BME280;5776;51.814;4.510;2023-03-18T08:18:47;101012.63;;;10.75;100.00
11440;BME280;5776;51.814;4.510;2023-03-18T08:21:13;101034.63;;;10.78;100.00
11440;BME280;5776;51.814;4.510;2023-03-18T08:23:40;101036.19;;;10.85;100.00
11440;BME280;5776;51.814;4.510;2023-03-18T08:26:06;101045.91;;;10.91;100.00
11440;BME280;5776;51.814;4.510;2023-03-18T08:28:32;101049.41;;;10.96;100.00
11440;BME280;5776;51.814;4.510;2023-03-18T08:30:58;101051.28;;;11.01;100.00
11440;BME280;5776;51.814;4.510;2023-03-18T08:33:26;101045.59;;;10.97;100.00
11440;BME280;5776;51.814;4.510;2023-03-18T08:35:55;101046.69;;;10.96;100.00
11440;BME280;5776;51.814;4.510;2023-03-18T08:38:23;101056.47;;;10.97;100.00
11440;BME280;5776;51.814;4.510;2023-03-18T08:40:50;101068.44;;;10.96;100.00
11440;BME280;5776;51.814;4.510;2023-03-18T08:43:16;101072.50;;;10.99;100.00
11440;BME280;5776;51.814;4.510;2023-03-18T08:45:42;101082.56;;;10.98;100.00
11440;BME280;5776;51.814;4.510;2023-03-18T08:48:10;101080.06;;;11.02;100.00
11440;BME280;5776;51.814;4.510;2023-03-18T08:50:36;101082.25;;;11.00;100.00
11440;BME280;5776;51.814;4.510;2023-03-18T08:53:02;101082.78;;;11.02;100.00
11440;BME280;5776;51.814;4.510;2023-03-18T08:55:30;101085.19;;;11.09;100.00
11440;BME280;5776;51.814;4.510;2023-03-18T08:57:57;101086.78;;;11.10;100.00
11440;BME280;5776;51.814;4.510;2023-03-18T09:00:24;101086.22;;;11.13;100.00
11440;BME280;5776;51.814;4.510;2023-03-18T09:02:50;101079.31;;;11.25;100.00
11440;BME280;5776;51.814;4.510;2023-03-18T09:05:18;101079.84;;;11.28;100.00
11440;BME280;5776;51.814;4.510;2023-03-18T09:07:44;101072.31;;;11.19;100.00
11440;BME280;5776;51.814;4.510;2023-03-18T09:10:12;101075.88;;;11.15;100.00
11440;BME280;5776;51.814;4.510;2023-03-18T09:12:43;101071.28;;;11.10;100.00
11440;BME280;5776;51.814;4.510;2023-03-18T09:15:11;101070.47;;;11.10;100.00
11440;BME280;5776;51.814;4.510;2023-03-18T09:17:38;101072.00;;;11.21;100.00
11440;BME280;5776;51.814;4.510;2023-03-18T09:20:12;101081.22;;;11.25;100.00
11440;BME280;5776;51.814;4.510;2023-03-18T09:22:40;101083.13;;;11.24;100.00
11440;BME280;5776;51.814;4.510;2023-03-18T09:25:06;101077.91;;;11.28;100.00
11440;BME280;5776;51.814;4.510;2023-03-18T09:27:33;101085.00;;;11.29;100.00
11440;BME280;5776;51.814;4.510;2023-03-18T09:29:59;101084.13;;;11.34;100.00
11440;BME280;5776;51.814;4.510;2023-03-18T09:32:25;101081.69;;;11.32;100.00
11440;BME280;5776;51.814;4.510;2023-03-18T09:34:52;101073.81;;;11.31;100.00
11440;BME280;5776;51.814;4.510;2023-03-18T09:37:18;101075.09;;;11.38;100.00
11440;BME280;5776;51.814;4.510;2023-03-18T09:39:44;101075.41;;;11.37;100.00
11440;BME280;5776;51.814;4.510;2023-03-18T09:44:57;101075.34;;;11.42;100.00
11440;BME280;5776;51.814;4.510;2023-03-18T09:47:45;101074.00;;;11.39;100.00
11440;BME280;5776;51.814;4.510;2023-03-18T09:53:04;101073.25;;;11.34;100.00
11440;BME280;5776;51.814;4.510;2023-03-18T09:55:36;101075.16;;;11.33;100.00
11440;BME280;5776;51.814;4.510;2023-03-18T09:58:46;101077.00;;;11.38;100.00
11440;BME280;5776;51.814;4.510;2023-03-18T10:01:14;101077.81;;;11.38;100.00
11440;BME280;5776;51.814;4.510;2023-03-18T10:06:14;101088.53;;;11.30;100.00
11440;BME280;5776;51.814;4.510;2023-03-18T10:16:41;101102.91;;;11.30;100.00
11440;BME280;5776;51.814;4.510;2023-03-18T10:19:09;101091.00;;;11.26;100.00
11440;BME280;5776;51.814;4.510;2023-03-18T10:21:46;101093.44;;;11.28;100.00
11440;BME280;5776;51.814;4.510;2023-03-18T10:27:13;101092.63;;;11.27;100.00
11440;BME280;5776;51.814;4.510;2023-03-18T10:32:51;101100.69;;;11.37;100.00
11440;BME280;5776;51.814;4.510;2023-03-18T10:35:30;101098.66;;;11.48;100.00
11440;BME280;5776;51.814;4.510;2023-03-18T10:38:02;101101.47;;;11.67;100.00
11440;BME280;5776;51.814;4.510;2023-03-18T10:40:35;101100.25;;;11.54;100.00
11440;BME280;5776;51.814;4.510;2023-03-18T10:43:02;101100.31;;;11.49;100.00
11440;BME280;5776;51.814;4.510;2023-03-18T10:45:31;101098.91;;;11.52;100.00
11440;BME280;5776;51.814;4.510;2023-03-18T10:48:16;101104.94;;;11.49;100.00
11440;BME280;5776;51.814;4.510;2023-03-18T10:50:51;101097.84;;;11.48;100.00
11440;BME280;5776;51.814;4.510;2023-03-18T10:53:29;101099.25;;;11.45;100.00
11440;BME280;5776;51.814;4.510;2023-03-18T10:56:08;101101.16;;;11.44;100.00
11440;BME280;5776;51.814;4.510;2023-03-18T10:58:34;101096.81;;;11.43;100.00
11440;BME280;5776;51.814;4.510;2023-03-18T11:01:05;101092.19;;;11.44;100.00
11440;BME280;5776;51.814;4.510;2023-03-18T11:03:46;101088.09;;;11.46;100.00
11440;BME280;5776;51.814;4.510;2023-03-18T11:06:34;101088.25;;;11.55;100.00
11440;BME280;5776;51.814;4.510;2023-03-18T11:09:09;101086.88;;;11.58;100.00
11440;BME280;5776;51.814;4.510;2023-03-18T11:11:39;101086.00;;;11.62;100.00
11440;BME280;5776;51.814;4.510;2023-03-18T11:14:15;101087.13;;;11.61;100.00
11440;BME280;5776;51.814;4.510;2023-03-18T11:19:37;101077.84;;;11.62;100.00
11440;BME280;5776;51.814;4.510;2023-03-18T11:22:22;101088.44;;;11.64;100.00
11440;BME280;5776;51.814;4.510;2023-03-18T11:25:16;101079.97;;;11.65;100.00
11440;BME280;5776;51.814;4.510;2023-03-18T11:27:46;101083.50;;;11.66;100.00
11440;BME280;5776;51.814;4.510;2023-03-18T11:32:56;101083.56;;;11.61;100.00
11440;BME280;5776;51.814;4.510;2023-03-18T11:35:51;101081.09;;;11.64;100.00
11440;BME280;5776;51.814;4.510;2023-03-18T11:38:27;101077.63;;;11.59;100.00
11440;BME280;5776;51.814;4.510;2023-03-18T11:41:08;101088.19;;;11.60;100.00
11440;BME280;5776;51.814;4.510;2023-03-18T11:43:38;101079.47;;;11.63;100.00
11440;BME280;5776;51.814;4.510;2023-03-18T11:46:07;101080.50;;;11.67;100.00
11440;BME280;5776;51.814;4.510;2023-03-18T11:48:36;101072.63;;;11.66;100.00
11440;BME280;5776;51.814;4.510;2023-03-18T11:54:04;101080.78;;;11.66;100.00
11440;BME280;5776;51.814;4.510;2023-03-18T11:56:53;101073.47;;;11.66;100.00
11440;BME280;5776;51.814;4.510;2023-03-18T12:14:33;101075.28;;;11.71;100.00
11440;BME280;5776;51.814;4.510;2023-03-18T12:22:57;101083.84;;;11.83;100.00
11440;BME280;5776;51.814;4.510;2023-03-18T12:25:58;101080.06;;;11.84;100.00
11440;BME280;5776;51.814;4.510;2023-03-18T12:31:37;101073.47;;;11.91;100.00
11440;BME280;5776;51.814;4.510;2023-03-18T12:39:57;101069.66;;;11.92;100.00
11440;BME280;5776;51.814;4.510;2023-03-18T12:45:14;101070.41;;;11.97;100.00
11440;BME280;5776;51.814;4.510;2023-03-18T12:47:59;101062.97;;;12.03;100.00
11440;BME280;5776;51.814;4.510;2023-03-18T12:50:34;101058.50;;;12.12;100.00
11440;BME280;5776;51.814;4.510;2023-03-18T12:53:02;101061.69;;;12.19;100.00
11440;BME280;5776;51.814;4.510;2023-03-18T12:55:46;101058.38;;;12.22;100.00
11440;BME280;5776;51.814;4.510;2023-03-18T12:58:21;101060.56;;;12.20;100.00
11440;BME280;5776;51.814;4.510;2023-03-18T13:00:50;101063.53;;;12.24;100.00
11440;BME280;5776;51.814;4.510;2023-03-18T13:03:33;101061.59;;;12.24;100.00
11440;BME280;5776;51.814;4.510;2023-03-18T13:06:57;101062.69;;;12.23;100.00
11440;BME280;5776;51.814;4.510;2023-03-18T13:09:33;101052.31;;;12.25;100.00
11440;BME280;5776;51.814;4.510;2023-03-18T13:12:05;101048.72;;;12.30;100.00
11440;BME280;5776;51.814;4.510;2023-03-18T13:15:05;101048.94;;;12.33;100.00
11440;BME280;5776;51.814;4.510;2023-03-18T13:17:41;101049.44;;;12.36;100.00
11440;BME280;5776;51.814;4.510;2023-03-18T13:20:17;101045.13;;;12.35;100.00
11440;BME280;5776;51.814;4.510;2023-03-18T13:28:41;101043.31;;;12.44;100.00
11440;BME280;5776;51.814;4.510;2023-03-18T13:31:34;101049.38;;;12.41;100.00
11440;BME280;5776;51.814;4.510;2023-03-18T13:42:26;101052.81;;;12.46;100.00
11440;BME280;5776;51.814;4.510;2023-03-18T13:47:44;101044.38;;;12.48;100.00
11440;BME280;5776;51.814;4.510;2023-03-18T13:52:44;101023.91;;;12.50;100.00
11440;BME280;5776;51.814;4.510;2023-03-18T13:58:21;101010.72;;;12.58;100.00
11440;BME280;5776;51.814;4.510;2023-03-18T14:03:52;101009.91;;;12.57;100.00
11440;BME280;5776;51.814;4.510;2023-03-18T14:06:22;101001.66;;;12.62;100.00
11440;BME280;5776;51.814;4.510;2023-03-18T14:08:50;101007.53;;;12.69;100.00
11440;BME280;5776;51.814;4.510;2023-03-18T14:16:15;100999.53;;;12.59;100.00
11440;BME280;5776;51.814;4.510;2023-03-18T14:19:18;101015.28;;;12.62;100.00
11440;BME280;5776;51.814;4.510;2023-03-18T14:21:50;101014.75;;;12.60;100.00
11440;BME280;5776;51.814;4.510;2023-03-18T14:32:02;101013.72;;;12.56;100.00
11440;BME280;5776;51.814;4.510;2023-03-18T14:34:34;101007.19;;;12.57;100.00
11440;BME280;5776;51.814;4.510;2023-03-18T14:37:23;101005.56;;;12.56;100.00
11440;BME280;5776;51.814;4.510;2023-03-18T14:39:51;101001.66;;;12.62;100.00
11440;BME280;5776;51.814;4.510;2023-03-18T14:45:32;100991.75;;;12.66;100.00
11440;BME280;5776;51.814;4.510;2023-03-18T14:48:02;100986.81;;;12.68;100.00
11440;BME280;5776;51.814;4.510;2023-03-18T14:50:38;100994.19;;;12.68;100.00